Vanderbilt, MI (49795)

11:29 AM EDT on September 02, 2014 (GMT -0400)
Bows Lake | Change Station
CLOSE
Current Station
Personal Weather Station
Location: Vanderbilt, MI
Elevation: 1202 ft
Nearby Weather Stations

Elev 1202 ft 45.15 °N, 84.77 °W | Updated 10 seconds ago

Partly Cloudy
Partly Cloudy
68.3 °F
Feels Like 68.3 °F
N
6.2
Wind Variable Wind from WSW
Gusts 8.7 mph

Today
High -- | Low -- °F
--% Chance of Precip.
Yesterday
High -- | Low -- °F
Precip. -- in
7:01 AM 8:13 PM
First Quarter, 52% visible
Pressure 29.87 in
Visibility 10.0 miles
Clouds Few 1000 ft
Scattered Clouds 2700 ft
Scattered Clouds 3600 ft
Dew Point 62 °F
Humidity 79%
Rainfall 0.00 in
Snow Depth Not available.
UV 4 out of 12
Pollen 8.60 out of 12
Ozone Good
PM2.5 Good
Flu Activity Not available.
SPECI KGLR 021515Z AUTO 27012KT 10SM FEW010 SCT027 SCT036 21/14 A2987 RMK AO2 T02060144

More Conditions Fewer Conditions

Pressure 29.87 in
Visibility 10.0 miles
Clouds Few 1000 ft
Scattered Clouds 2700 ft
Scattered Clouds 3600 ft
Dew Point 62 °F
Humidity 79%
Rainfall 0.00 in
Snow Depth Not available.
UV 4 out of 12
Pollen 8.60 out of 12
Ozone Good
PM2.5 Good
Flu Activity Not available.
SPECI KGLR 021515Z AUTO 27012KT 10SM FEW010 SCT027 SCT036 21/14 A2987 RMK AO2 T02060144

More Conditions Fewer Conditions

Nowcast | as of 11:00 am EDT on September 2, 2014

At 12 PM...partly cloudy. Temperature 67. West winds 10 mph. At 2 PM...partly cloudy. Isolated rain showers. Temperature 71. West winds 11 mph. At 4 PM...partly cloudy. Isolated rain showers. Temperature 72. West winds 12 mph. At 6 PM...partly cloudy. Isolated rain showers. Temperature 70. West winds 10 mph.

×

10-Day Weather Forecast

Almanac

Astronomy

Sep. 02, 2014 Rise Set
Actual Time 7:01 AM EDT 8:13 PM EDT
Civil Twilight 6:31 AM EDT 8:44 PM EDT
Nautical Twilight 5:54 AM EDT 9:20 PM EDT
Astronomical Twilight 5:16 AM EDT 9:58 PM EDT
Moon 3:04 PM EDT No Moon Set
Length of Visible Light 14h 12m
Length of Day
13h 12m
Tomorrow will be 3m 2s shorter.
First Quarter, 52% of the Moon is Illuminated
Today
First Quarter
Sep 8
Full
Sep 15
Last Quarter
Sep 24
New
Oct 1
First Quarter

Today's Extremes

State Highs State Lows

Community

WunderPhotos

Upload Photos

1,749,690 photos uploaded!

Nearby

Air Quality

  Air Quality AQ Index Pollutant
Yesterday Good
OZONE
Yesterday Good
PM2.5
Current Good
PM2.5
Current Good
OZONE
Tuesday Good
OZONE
Tuesday Good
PM2.5

Snow Depth

Station Depth Elevation
No new snow has been reported.

Earthquake Activity

City Distance Mag. Time & Date
No recent earthquake activity has been reported nearby.
Minimum magnitude displayed is 2.5.

Coastal Water Temperatures

Place Temperature
Mackinaw City, MI 64.9 °F
Port Inland, MI 66.0 °F

Nearby Weather Stations